Time;durP1;ratioP1;P1;durP2;ratioP2;P2;SDS_P1;SDS_P2;PMS_P1;PMS_P2;Temp;Humidity;BMP_temperature;BMP_pressure;BME280_temperature;BME280_humidity;BME280_pressure;Samples;Min_cycle;Max_cycle;Signal;HPM_P1;HPM_P2
2022/11/15 00:00:41;;;;;;;9.80;8.15;;;11.80;99.90;;;;;;2072200;28;20037;-71
2022/11/15 00:01:41;;;;;;;10.45;8.25;;;11.90;99.90;;;;;;2071426;28;20022;-71
2022/11/15 00:02:42;;;;;;;8.20;7.25;;;11.90;99.90;;;;;;2078575;28;20549;-71
2022/11/15 00:03:42;;;;;;;9.00;8.13;;;11.90;99.90;;;;;;2078442;28;20043;-71
2022/11/15 00:04:43;;;;;;;9.52;7.72;;;11.90;99.90;;;;;;2068546;28;20033;-71
2022/11/15 00:05:44;;;;;;;10.43;8.35;;;11.90;99.90;;;;;;2071034;28;20022;-71
2022/11/15 00:06:45;;;;;;;9.30;7.55;;;11.90;99.90;;;;;;2071752;28;20105;-71
2022/11/15 00:07:45;;;;;;;9.02;7.75;;;11.90;99.90;;;;;;2071399;28;20038;-71
2022/11/15 00:08:46;;;;;;;8.15;7.35;;;12.00;99.90;;;;;;2067990;28;20037;-71
2022/11/15 00:09:46;;;;;;;9.65;7.47;;;12.00;99.90;;;;;;2071704;28;20041;-71
2022/11/15 00:11:01;;;;;;;8.60;7.03;;;12.00;99.90;;;;;;2066735;28;20398;-71
2022/11/15 00:12:02;;;;;;;10.30;7.40;;;12.00;99.90;;;;;;2069662;28;20800;-71
2022/11/15 00:13:07;;;;;;;10.60;7.95;;;12.00;99.90;;;;;;2068073;28;20430;-71
2022/11/15 00:14:08;;;;;;;9.70;7.60;;;12.00;99.90;;;;;;2069538;28;20103;-71
2022/11/15 00:15:08;;;;;;;9.60;7.15;;;12.00;99.90;;;;;;2068674;28;20112;-71
2022/11/15 00:16:10;;;;;;;8.02;6.95;;;12.00;99.90;;;;;;2071523;28;20537;-71
2022/11/15 00:17:10;;;;;;;8.32;7.07;;;12.10;99.90;;;;;;2069844;28;20041;-71
2022/11/15 00:18:13;;;;;;;9.43;7.30;;;12.00;99.90;;;;;;2069836;28;20109;-71
2022/11/15 00:19:14;;;;;;;10.57;7.88;;;12.10;99.90;;;;;;2071136;28;20103;-71
2022/11/15 00:20:14;;;;;;;8.70;7.40;;;12.10;99.90;;;;;;2069870;28;20139;-71
2022/11/15 00:21:16;;;;;;;9.38;7.50;;;12.10;99.90;;;;;;2071003;28;20018;-71
2022/11/15 00:22:17;;;;;;;9.48;7.25;;;12.10;99.90;;;;;;2072534;28;20636;-71
2022/11/15 00:23:17;;;;;;;9.27;7.35;;;12.10;99.90;;;;;;2070244;28;20063;-71
2022/11/15 00:24:18;;;;;;;8.40;6.93;;;12.10;99.90;;;;;;2069240;28;20797;-71
2022/11/15 00:25:18;;;;;;;8.73;6.85;;;12.10;99.90;;;;;;2068881;28;20037;-71
2022/11/15 00:26:19;;;;;;;7.57;6.85;;;12.10;99.90;;;;;;2070620;28;20057;-71
2022/11/15 00:27:19;;;;;;;9.32;6.65;;;12.20;99.90;;;;;;2072365;28;20076;-71
2022/11/15 00:28:20;;;;;;;10.60;7.25;;;12.20;99.90;;;;;;2070490;28;20049;-71
2022/11/15 00:29:22;;;;;;;9.23;7.32;;;12.20;99.90;;;;;;2070627;28;20033;-71
2022/11/15 00:30:23;;;;;;;8.27;7.05;;;12.20;99.90;;;;;;2073134;28;20028;-71
2022/11/15 00:31:24;;;;;;;9.38;7.47;;;12.20;99.90;;;;;;2071190;28;20497;-71
2022/11/15 00:32:24;;;;;;;7.88;6.95;;;12.20;99.90;;;;;;2071315;28;20493;-71
2022/11/15 00:33:25;;;;;;;9.45;6.78;;;12.20;99.90;;;;;;2071182;28;20559;-71
2022/11/15 00:34:25;;;;;;;7.72;6.50;;;12.30;99.90;;;;;;2069995;28;20482;-71
2022/11/15 00:35:26;;;;;;;8.77;6.78;;;12.30;99.90;;;;;;2071480;28;20460;-71
2022/11/15 00:36:27;;;;;;;9.32;7.47;;;12.30;99.90;;;;;;2070695;28;20061;-71
2022/11/15 00:37:27;;;;;;;8.23;6.75;;;12.30;99.90;;;;;;2069532;28;20039;-71
2022/11/15 00:38:33;;;;;;;10.02;7.28;;;12.30;99.90;;;;;;2070144;28;20037;-71
2022/11/15 00:39:33;;;;;;;7.35;6.60;;;12.30;99.90;;;;;;2070835;28;20033;-71
2022/11/15 00:40:34;;;;;;;7.35;6.63;;;12.30;99.90;;;;;;2068863;28;20057;-71
2022/11/15 00:41:34;;;;;;;8.02;6.53;;;12.40;99.90;;;;;;2077995;28;20025;-71
2022/11/15 00:42:35;;;;;;;7.80;6.28;;;12.30;99.90;;;;;;2078360;28;21304;-71
2022/11/15 00:43:36;;;;;;;11.55;7.00;;;12.40;99.90;;;;;;2071357;28;20053;-71
2022/11/15 00:44:36;;;;;;;6.97;6.20;;;12.40;99.90;;;;;;2069403;28;20509;-71
2022/11/15 00:45:37;;;;;;;7.38;6.35;;;12.40;99.90;;;;;;2071036;28;20025;-71
2022/11/15 00:46:37;;;;;;;7.65;6.78;;;12.40;99.90;;;;;;2071958;28;20462;-71
2022/11/15 00:47:38;;;;;;;8.00;7.15;;;12.40;99.90;;;;;;2069276;28;20406;-71
2022/11/15 00:48:38;;;;;;;7.85;6.43;;;12.40;99.90;;;;;;2070975;28;20037;-71
2022/11/15 00:49:40;;;;;;;9.38;6.70;;;12.40;99.90;;;;;;2072646;28;20033;-71
2022/11/15 00:50:41;;;;;;;9.30;6.65;;;12.40;99.90;;;;;;2075399;28;20359;-71
2022/11/15 00:51:41;;;;;;;11.10;7.40;;;12.40;99.90;;;;;;2071593;28;20052;-71
2022/11/15 00:52:42;;;;;;;7.90;6.63;;;12.40;99.90;;;;;;2072484;28;20065;-71
2022/11/15 00:53:43;;;;;;;12.50;7.43;;;12.50;99.90;;;;;;2069348;28;20034;-71
2022/11/15 00:54:43;;;;;;;9.35;6.65;;;12.50;99.90;;;;;;2068984;28;20025;-71
2022/11/15 00:55:44;;;;;;;7.60;6.68;;;12.50;99.90;;;;;;2071726;28;20092;-71
2022/11/15 00:56:44;;;;;;;8.40;6.93;;;12.50;99.90;;;;;;2070443;28;20088;-71
2022/11/15 00:57:46;;;;;;;9.75;6.53;;;12.50;99.90;;;;;;2070427;28;20041;-71
2022/11/15 00:58:46;;;;;;;7.65;6.88;;;12.60;99.90;;;;;;2070959;28;20037;-71
2022/11/15 00:59:47;;;;;;;9.25;6.85;;;12.60;99.90;;;;;;2071126;28;20116;-71
2022/11/15 01:00:47;;;;;;;10.82;7.03;;;12.60;99.90;;;;;;2072082;28;20482;-71
2022/11/15 01:01:48;;;;;;;9.65;7.47;;;12.60;99.90;;;;;;2071066;28;20448;-71
2022/11/15 01:02:48;;;;;;;9.10;6.70;;;12.60;99.90;;;;;;2069081;28;20152;-71
2022/11/15 01:03:49;;;;;;;8.32;6.50;;;12.60;99.90;;;;;;2070369;28;20030;-71
2022/11/15 01:04:49;;;;;;;9.15;6.38;;;12.60;99.90;;;;;;2069943;28;20489;-71
2022/11/15 01:05:50;;;;;;;9.57;6.85;;;12.60;99.90;;;;;;2072168;28;20663;-71
2022/11/15 01:06:50;;;;;;;8.52;6.53;;;12.60;99.90;;;;;;2071155;28;20037;-71
2022/11/15 01:07:52;;;;;;;8.85;6.68;;;12.70;99.90;;;;;;2068167;28;20034;-71
2022/11/15 01:08:53;;;;;;;7.45;6.65;;;12.70;99.90;;;;;;2070581;28;20109;-71
2022/11/15 01:09:53;;;;;;;8.85;7.05;;;12.70;99.90;;;;;;2073528;28;20030;-71
2022/11/15 01:10:54;;;;;;;7.40;6.70;;;12.70;99.90;;;;;;2071536;28;20058;-71
2022/11/15 01:11:54;;;;;;;8.02;6.47;;;12.70;99.90;;;;;;2073043;28;20101;-71
2022/11/15 01:12:55;;;;;;;9.90;5.97;;;12.70;99.90;;;;;;2070635;28;20080;-71
2022/11/15 01:13:55;;;;;;;8.10;6.65;;;12.70;99.90;;;;;;2069596;28;20113;-71
2022/11/15 01:14:56;;;;;;;7.22;6.15;;;12.70;99.90;;;;;;2071180;28;20034;-71
2022/11/15 01:15:56;;;;;;;8.70;6.95;;;12.80;99.90;;;;;;2070178;28;20494;-71
2022/11/15 01:16:57;;;;;;;8.70;6.43;;;12.80;99.90;;;;;;2072291;28;20501;-71
2022/11/15 01:17:57;;;;;;;9.85;6.22;;;12.80;99.90;;;;;;2070712;28;20060;-71
2022/11/15 01:18:58;;;;;;;8.63;6.88;;;12.80;99.90;;;;;;2069788;28;20026;-71
2022/11/15 01:19:58;;;;;;;6.95;6.20;;;12.80;99.90;;;;;;2072072;28;20121;-71
2022/11/15 01:20:59;;;;;;;8.20;6.20;;;12.80;99.90;;;;;;2072404;28;20021;-71
2022/11/15 01:22:00;;;;;;;9.02;7.28;;;12.80;99.90;;;;;;2070604;28;20036;-71
2022/11/15 01:23:00;;;;;;;7.50;6.35;;;12.80;99.90;;;;;;2070505;28;20025;-71
2022/11/15 01:24:01;;;;;;;7.65;6.50;;;12.90;99.90;;;;;;2068620;28;20038;-71
2022/11/15 01:25:01;;;;;;;9.93;6.65;;;12.90;99.90;;;;;;2070278;28;20093;-71
2022/11/15 01:26:04;;;;;;;8.95;6.47;;;12.90;99.90;;;;;;2072383;28;20021;-71
2022/11/15 01:27:04;;;;;;;10.48;6.28;;;12.90;99.90;;;;;;2069988;28;20065;-71
2022/11/15 01:28:05;;;;;;;7.78;6.40;;;12.90;99.90;;;;;;2073271;28;20041;-71
2022/11/15 01:29:06;;;;;;;9.02;6.88;;;12.90;99.90;;;;;;2070491;28;20389;-71
2022/11/15 01:30:08;;;;;;;6.70;6.00;;;13.00;99.90;;;;;;2070104;28;20026;-71
2022/11/15 01:31:20;;;;;;;9.10;6.03;;;13.00;99.90;;;;;;2071704;28;20083;-71
2022/11/15 01:32:20;;;;;;;6.03;5.43;;;13.00;99.90;;;;;;2070403;28;20022;-71
2022/11/15 01:33:21;;;;;;;7.03;6.13;;;13.00;99.90;;;;;;2067689;28;20501;-71
2022/11/15 01:34:21;;;;;;;8.32;6.45;;;13.00;99.90;;;;;;2069630;28;20056;-71
2022/11/15 01:35:22;;;;;;;8.30;6.05;;;13.00;99.90;;;;;;2071766;28;20018;-71
2022/11/15 01:36:23;;;;;;;8.77;6.40;;;13.00;99.90;;;;;;2071744;28;20038;-71
2022/11/15 01:37:23;;;;;;;7.20;6.25;;;13.00;99.90;;;;;;2070410;28;20029;-71
2022/11/15 01:38:24;;;;;;;7.72;6.43;;;13.00;99.90;;;;;;2067902;28;20049;-71
2022/11/15 01:39:24;;;;;;;7.07;6.18;;;13.10;99.90;;;;;;2071180;28;20473;-71
2022/11/15 01:40:25;;;;;;;7.75;6.22;;;13.10;99.90;;;;;;2070427;28;20458;-71
2022/11/15 01:41:28;;;;;;;8.02;6.40;;;13.10;99.90;;;;;;2071696;28;20048;-71
2022/11/15 01:42:29;;;;;;;7.93;6.55;;;13.10;99.90;;;;;;2072544;28;20033;-71
2022/11/15 01:43:32;;;;;;;7.47;6.60;;;13.10;99.90;;;;;;2070068;28;20029;-71
2022/11/15 01:44:54;;;;;;;8.38;5.82;;;13.10;99.90;;;;;;2068751;28;20058;-71
2022/11/15 01:46:19;;;;;;;8.23;5.78;;;13.10;99.90;;;;;;2072573;28;20108;-71
2022/11/15 01:47:26;;;;;;;6.50;5.85;;;13.10;99.90;;;;;;2071864;28;20026;-71
2022/11/15 01:48:33;;;;;;;7.97;6.13;;;13.20;99.90;;;;;;2077742;28;20498;-71
2022/11/15 01:49:37;;;;;;;7.22;6.15;;;13.20;99.90;;;;;;2076645;28;20425;-71
2022/11/15 01:50:38;;;;;;;9.18;6.40;;;13.20;99.90;;;;;;2071191;28;20033;-71
2022/11/15 01:51:39;;;;;;;6.13;5.53;;;13.20;99.90;;;;;;2070994;28;20072;-71
2022/11/15 01:52:40;;;;;;;7.13;5.90;;;13.20;99.90;;;;;;2070398;28;20800;-71
2022/11/15 01:53:45;;;;;;;8.77;6.20;;;13.20;99.90;;;;;;2069980;28;20026;-71
2022/11/15 01:54:48;;;;;;;7.53;6.38;;;13.30;99.90;;;;;;2068002;28;20042;-71
2022/11/15 01:55:48;;;;;;;7.10;6.10;;;13.30;99.90;;;;;;2069888;28;20635;-71
2022/11/15 01:56:54;;;;;;;8.50;6.45;;;13.30;99.90;;;;;;2068044;28;21657;-71
2022/11/15 01:57:59;;;;;;;7.53;6.25;;;13.30;99.90;;;;;;2072430;28;20033;-71
2022/11/15 01:59:03;;;;;;;10.32;6.47;;;13.30;99.90;;;;;;2070968;28;20080;-71
2022/11/15 02:00:05;;;;;;;6.75;5.60;;;13.30;99.90;;;;;;2068384;28;20026;-71
2022/11/15 02:01:05;;;;;;;9.10;5.78;;;13.30;99.90;;;;;;2073164;28;20512;-71
2022/11/15 02:02:06;;;;;;;7.05;6.18;;;13.30;99.90;;;;;;2072116;28;20500;-71
2022/11/15 02:03:07;;;;;;;6.78;5.88;;;13.30;99.90;;;;;;2072179;28;20051;-71
2022/11/15 02:04:14;;;;;;;9.13;5.47;;;13.30;99.90;;;;;;2071707;28;20034;-71
2022/11/15 02:05:15;;;;;;;10.18;5.88;;;13.40;99.90;;;;;;2072416;28;20022;-71
2022/11/15 02:06:16;;;;;;;8.35;5.85;;;13.40;99.90;;;;;;2073403;28;20030;-71
2022/11/15 02:07:19;;;;;;;8.27;6.28;;;13.40;99.90;;;;;;2073535;28;20036;-71
2022/11/15 02:08:20;;;;;;;6.60;5.90;;;13.40;99.90;;;;;;2071506;28;20502;-71
2022/11/15 02:09:20;;;;;;;8.98;5.85;;;13.40;99.90;;;;;;2072701;28;20397;-71
2022/11/15 02:10:23;;;;;;;6.35;5.68;;;13.40;99.90;;;;;;2072174;28;20022;-71
2022/11/15 02:11:24;;;;;;;9.80;6.03;;;13.40;99.90;;;;;;2072879;28;20033;-71
2022/11/15 02:12:24;;;;;;;7.70;5.82;;;13.40;99.90;;;;;;2070117;28;20027;-71
2022/11/15 02:13:25;;;;;;;7.55;5.90;;;13.50;99.90;;;;;;2070538;28;20064;-71
2022/11/15 02:14:28;;;;;;;6.47;5.65;;;13.50;99.90;;;;;;2072740;28;20030;-71
2022/11/15 02:15:38;;;;;;;7.88;5.55;;;13.50;99.90;;;;;;2072438;28;20397;-71
2022/11/15 02:17:03;;;;;;;7.45;5.93;;;13.50;99.90;;;;;;2077987;28;20496;-71
2022/11/15 02:18:34;;;;;;;6.43;5.00;;;13.50;99.90;;;;;;2079166;28;20030;-71
2022/11/15 02:19:47;;;;;;;7.63;5.38;;;13.50;99.90;;;;;;2072235;28;20076;-71
2022/11/15 02:21:11;;;;;;;7.25;5.82;;;13.50;99.90;;;;;;2073804;28;20034;-71
2022/11/15 02:22:36;;;;;;;6.68;5.18;;;13.50;99.90;;;;;;2072490;28;20025;-71
2022/11/15 02:24:05;;;;;;;6.63;5.63;;;13.50;99.90;;;;;;2071226;28;20759;-71
2022/11/15 02:25:12;;;;;;;9.25;5.72;;;13.50;99.90;;;;;;2073664;28;20448;-71
2022/11/15 02:26:49;;;;;;;7.60;6.03;;;13.50;99.90;;;;;;2072685;28;20490;-71
2022/11/15 02:28:14;;;;;;;8.40;5.63;;;13.50;99.90;;;;;;2071231;28;20113;-71
2022/11/15 02:29:33;;;;;;;8.25;5.63;;;13.50;99.90;;;;;;2069166;28;20072;-71
2022/11/15 02:30:41;;;;;;;6.13;5.35;;;13.50;99.90;;;;;;2071118;28;20644;-71
2022/11/15 02:32:18;;;;;;;7.10;5.63;;;13.50;99.90;;;;;;2074480;28;20060;-71
2022/11/15 02:33:44;;;;;;;8.05;5.20;;;13.50;99.90;;;;;;2072498;28;20080;-71
2022/11/15 02:35:00;;;;;;;5.80;5.07;;;13.50;99.90;;;;;;2072132;28;20462;-71
2022/11/15 02:36:14;;;;;;;6.57;5.45;;;13.50;99.90;;;;;;2071795;28;20034;-71
2022/11/15 02:37:15;;;;;;;7.55;5.57;;;13.50;99.90;;;;;;2072210;28;20053;-71
2022/11/15 02:38:37;;;;;;;6.70;4.88;;;13.50;99.90;;;;;;2071078;28;20492;-71
2022/11/15 02:39:45;;;;;;;5.53;5.07;;;13.50;99.90;;;;;;2071244;28;20489;-71
2022/11/15 02:40:59;;;;;;;9.52;5.40;;;13.50;99.90;;;;;;2070109;28;20037;-71
2022/11/15 02:42:03;;;;;;;6.72;5.30;;;13.50;99.90;;;;;;2069881;28;20018;-71
2022/11/15 02:44:38;;;;;;;7.82;5.47;;;13.50;99.90;;;;;;2070956;28;20026;-71
2022/11/15 02:45:50;;;;;;;7.50;5.50;;;13.50;99.90;;;;;;2071481;28;20390;-71
2022/11/15 02:47:14;;;;;;;5.45;4.95;;;13.60;99.90;;;;;;2071677;28;20034;-71
2022/11/15 02:48:16;;;;;;;6.53;5.35;;;13.50;99.90;;;;;;2071150;28;20057;-71
2022/11/15 02:49:17;;;;;;;8.93;5.65;;;13.60;99.90;;;;;;2073032;28;20064;-71
2022/11/15 02:50:22;;;;;;;8.15;5.20;;;13.50;99.90;;;;;;2071729;28;20034;-71
2022/11/15 02:51:22;;;;;;;5.57;5.05;;;13.60;99.90;;;;;;2073703;28;20041;-71
2022/11/15 02:52:27;;;;;;;6.47;5.30;;;13.60;99.90;;;;;;2070676;28;20136;-71
2022/11/15 02:53:28;;;;;;;7.55;5.38;;;13.60;99.90;;;;;;2073732;28;20068;-71
2022/11/15 02:54:31;;;;;;;6.35;5.47;;;13.60;99.90;;;;;;2071276;28;20034;-71
2022/11/15 02:55:34;;;;;;;8.75;5.78;;;13.60;99.90;;;;;;2072638;28;20030;-71
2022/11/15 02:56:35;;;;;;;6.53;5.55;;;13.60;99.90;;;;;;2071975;28;20112;-71
2022/11/15 02:57:57;;;;;;;7.93;6.03;;;13.60;99.90;;;;;;2071499;28;20033;-71
2022/11/15 02:59:18;;;;;;;8.38;5.70;;;13.60;99.90;;;;;;2070613;28;20486;-71
2022/11/15 03:00:20;;;;;;;6.43;5.32;;;13.60;99.90;;;;;;2070514;28;20037;-71
2022/11/15 03:01:21;;;;;;;6.00;5.40;;;13.60;99.90;;;;;;2071001;28;20081;-71
2022/11/15 03:02:48;;;;;;;6.95;6.10;;;13.60;99.90;;;;;;2070248;28;20030;-71
2022/11/15 03:04:15;;;;;;;8.70;5.82;;;13.60;99.90;;;;;;2071092;28;20033;-71
2022/11/15 03:05:42;;;;;;;7.85;5.63;;;13.60;99.90;;;;;;2074094;28;20072;-71
2022/11/15 03:06:53;;;;;;;7.80;5.15;;;13.60;99.90;;;;;;2071284;28;20490;-71
2022/11/15 03:08:27;;;;;;;7.53;5.65;;;13.50;99.90;;;;;;2071289;28;20029;-71
2022/11/15 03:09:42;;;;;;;7.20;5.43;;;13.60;99.90;;;;;;2075185;28;20064;-71
2022/11/15 03:10:52;;;;;;;8.27;5.95;;;13.50;99.90;;;;;;2072242;28;20040;-71
2022/11/15 03:12:01;;;;;;;8.82;5.55;;;13.50;99.90;;;;;;2071790;28;20573;-71
2022/11/15 03:13:27;;;;;;;8.98;6.65;;;13.50;99.90;;;;;;2070107;28;20060;-71
2022/11/15 03:14:36;;;;;;;7.32;5.60;;;13.50;99.90;;;;;;2072034;28;21002;-71
2022/11/15 03:16:13;;;;;;;10.15;6.05;;;13.50;99.90;;;;;;2072136;28;20048;-71
2022/11/15 03:17:14;;;;;;;12.50;6.35;;;13.50;99.90;;;;;;2071168;28;20029;-71
2022/11/15 03:18:31;;;;;;;7.10;6.22;;;13.50;99.90;;;;;;2071788;28;20100;-71
2022/11/15 03:19:43;;;;;;;8.20;6.28;;;13.60;99.90;;;;;;2071542;28;20048;-71
2022/11/15 03:20:45;;;;;;;6.78;6.07;;;13.60;99.90;;;;;;2070575;28;20030;-71
2022/11/15 03:21:47;;;;;;;8.80;5.85;;;13.60;99.90;;;;;;2073511;28;20034;-71
2022/11/15 03:22:49;;;;;;;9.15;6.40;;;13.60;99.90;;;;;;2070452;28;20029;-71
2022/11/15 03:23:51;;;;;;;7.85;6.78;;;13.60;99.90;;;;;;2072589;28;20053;-71
2022/11/15 03:25:00;;;;;;;8.93;6.15;;;13.60;99.90;;;;;;2071314;28;20033;-71
2022/11/15 03:26:01;;;;;;;8.88;6.57;;;13.60;99.90;;;;;;2071545;28;20022;-71
2022/11/15 03:27:05;;;;;;;9.23;6.10;;;13.60;99.90;;;;;;2071145;28;20534;-71
2022/11/15 03:28:09;;;;;;;8.38;6.57;;;13.60;99.90;;;;;;2071814;28;20080;-71
2022/11/15 03:29:16;;;;;;;9.35;7.00;;;13.60;99.90;;;;;;2068249;28;20033;-71
2022/11/15 03:30:17;;;;;;;6.70;6.05;;;13.60;99.90;;;;;;2071631;28;20080;-71
2022/11/15 03:33:02;;;;;;;6.57;5.97;;;13.60;99.90;;;;;;2054269;28;20022;-71
2022/11/15 03:34:05;;;;;;;9.45;6.35;;;13.60;99.90;;;;;;2054517;28;20018;-71
2022/11/15 03:35:07;;;;;;;9.60;6.70;;;13.60;99.90;;;;;;2056466;28;20022;-71
2022/11/15 03:36:08;;;;;;;10.60;6.00;;;13.60;99.90;;;;;;2053537;28;20030;-71
2022/11/15 03:37:12;;;;;;;8.32;6.18;;;13.60;99.90;;;;;;2049137;28;20089;-71
2022/11/15 03:38:25;;;;;;;9.75;6.97;;;13.60;99.90;;;;;;2048439;28;20523;-71
2022/11/15 03:39:26;;;;;;;7.80;6.43;;;13.60;99.90;;;;;;2073657;28;20053;-71
2022/11/15 03:40:39;;;;;;;8.35;6.70;;;13.70;99.90;;;;;;2072039;28;20265;-71
2022/11/15 03:41:52;;;;;;;9.13;6.53;;;13.70;99.90;;;;;;2070875;28;20081;-71
2022/11/15 03:43:06;;;;;;;9.10;6.45;;;13.70;99.90;;;;;;2070041;28;20027;-71
2022/11/15 03:44:26;;;;;;;7.10;6.40;;;13.70;99.90;;;;;;2070734;28;20029;-71
2022/11/15 03:45:32;;;;;;;7.18;6.25;;;13.70;99.90;;;;;;2073783;28;20033;-71
2022/11/15 03:46:38;;;;;;;6.80;6.13;;;13.70;99.90;;;;;;2071527;28;20122;-71
2022/11/15 03:47:45;;;;;;;9.43;6.55;;;13.70;99.90;;;;;;2069933;28;20037;-71
2022/11/15 03:48:52;;;;;;;6.88;5.63;;;13.70;99.90;;;;;;2070777;28;20030;-71
2022/11/15 03:49:58;;;;;;;7.28;6.15;;;13.70;99.90;;;;;;2071079;28;20048;-71
2022/11/15 03:50:59;;;;;;;10.38;6.60;;;13.70;99.90;;;;;;2073389;28;20030;-71
2022/11/15 03:52:02;;;;;;;7.78;6.45;;;13.70;99.90;;;;;;2071874;28;20022;-71
2022/11/15 03:53:02;;;;;;;9.20;6.78;;;13.70;99.90;;;;;;2069904;28;20033;-71
2022/11/15 03:54:06;;;;;;;8.25;5.88;;;13.70;99.90;;;;;;2069924;28;20018;-71
2022/11/15 03:55:10;;;;;;;9.70;6.57;;;13.80;99.90;;;;;;2073692;28;20069;-71
2022/11/15 03:56:10;;;;;;;9.63;6.40;;;13.80;99.90;;;;;;2069335;28;20018;-71
2022/11/15 03:57:11;;;;;;;8.77;6.30;;;13.70;99.90;;;;;;2071245;28;20046;-71
2022/11/15 03:58:11;;;;;;;7.90;6.15;;;13.70;99.90;;;;;;2073351;28;20033;-71
2022/11/15 03:59:12;;;;;;;11.65;6.28;;;13.80;99.90;;;;;;2080120;28;20027;-71
2022/11/15 04:00:12;;;;;;;6.85;5.80;;;13.80;99.90;;;;;;2077802;28;20859;-71
2022/11/15 04:01:13;;;;;;;6.72;6.03;;;13.80;99.90;;;;;;2070228;28;20021;-71
2022/11/15 04:02:14;;;;;;;8.43;5.90;;;13.80;99.90;;;;;;2071123;28;20104;-71
2022/11/15 04:03:14;;;;;;;7.93;6.32;;;13.80;99.90;;;;;;2070165;28;20033;-71
2022/11/15 04:04:15;;;;;;;7.10;5.75;;;13.80;99.90;;;;;;2070568;28;20557;-71
2022/11/15 04:05:15;;;;;;;7.93;6.38;;;13.80;99.90;;;;;;2071004;28;20460;-71
2022/11/15 04:06:16;;;;;;;10.75;6.57;;;13.80;99.90;;;;;;2070612;28;20040;-71
2022/11/15 04:07:17;;;;;;;6.95;5.95;;;13.80;99.90;;;;;;2075766;28;20023;-71
2022/11/15 04:08:17;;;;;;;6.72;5.38;;;13.80;99.90;;;;;;2072298;28;20061;-71
2022/11/15 04:09:18;;;;;;;7.65;6.10;;;13.90;99.90;;;;;;2074317;28;20131;-71
2022/11/15 04:10:18;;;;;;;7.90;6.18;;;13.90;99.90;;;;;;2071251;28;20029;-71
2022/11/15 04:11:19;;;;;;;6.18;5.57;;;13.90;99.90;;;;;;2072550;28;20546;-71
2022/11/15 04:12:30;;;;;;;7.68;5.78;;;13.80;99.90;;;;;;2070874;28;20061;-71
2022/11/15 04:13:30;;;;;;;6.85;5.75;;;13.90;99.90;;;;;;2070722;28;20033;-71
2022/11/15 04:14:31;;;;;;;7.45;6.18;;;13.80;99.90;;;;;;2071341;28;20168;-71
2022/11/15 04:15:32;;;;;;;8.07;5.80;;;13.80;99.90;;;;;;2072760;28;20025;-71
2022/11/15 04:16:32;;;;;;;8.98;6.25;;;13.80;99.90;;;;;;2070855;28;20029;-71
2022/11/15 04:17:38;;;;;;;7.50;6.53;;;13.90;99.90;;;;;;2071743;28;20034;-71
2022/11/15 04:18:38;;;;;;;8.50;6.30;;;13.90;99.90;;;;;;2072025;28;20033;-71
2022/11/15 04:24:11;;;;;;;6.60;6.00;;;13.80;99.90;;;;;;2068889;28;20030;-71
2022/11/15 04:25:06;;;;;;;6.47;5.55;;;13.80;99.90;;;;;;2069955;28;20029;-71
2022/11/15 04:26:13;;;;;;;9.30;6.32;;;13.80;99.90;;;;;;2071621;28;20987;-71
2022/11/15 04:27:13;;;;;;;7.55;6.13;;;13.80;99.90;;;;;;2072031;28;20080;-71
2022/11/15 04:28:14;;;;;;;6.85;5.47;;;13.80;99.90;;;;;;2077696;28;20050;-71
2022/11/15 04:30:34;;;;;;;8.93;5.93;;;13.80;99.90;;;;;;2070384;28;20025;-71
2022/11/15 04:31:34;;;;;;;6.10;5.47;;;13.80;99.90;;;;;;2071436;28;20108;-71
2022/11/15 04:32:35;;;;;;;7.53;6.03;;;13.70;99.90;;;;;;2069980;28;20069;-71
2022/11/15 04:33:35;;;;;;;7.07;6.10;;;13.80;99.90;;;;;;2070507;28;20100;-71
2022/11/15 04:34:36;;;;;;;6.63;5.93;;;13.80;99.90;;;;;;2070735;28;20029;-71
2022/11/15 04:35:36;;;;;;;7.15;5.50;;;13.80;99.90;;;;;;2069951;28;20033;-71
2022/11/15 04:37:57;;;;;;;7.80;5.82;;;13.80;99.90;;;;;;2071477;28;20030;-71
2022/11/15 04:38:57;;;;;;;6.30;5.47;;;13.80;99.90;;;;;;2071790;28;20041;-71
2022/11/15 04:39:58;;;;;;;6.53;5.82;;;13.80;99.90;;;;;;2071855;28;20053;-71
2022/11/15 04:40:58;;;;;;;8.63;5.95;;;13.80;99.90;;;;;;2074003;28;20060;-71
2022/11/15 04:41:59;;;;;;;6.80;5.47;;;13.80;99.90;;;;;;2074935;28;20052;-71
2022/11/15 04:42:59;;;;;;;6.32;5.72;;;13.80;99.90;;;;;;2070600;28;20026;-71
2022/11/15 04:44:00;;;;;;;9.25;5.95;;;13.80;99.90;;;;;;2071864;28;20025;-71
2022/11/15 04:45:00;;;;;;;6.78;5.47;;;13.80;99.90;;;;;;2074404;28;20060;-71
2022/11/15 04:46:01;;;;;;;8.45;5.57;;;13.80;99.90;;;;;;2071682;28;20049;-71
2022/11/15 04:47:03;;;;;;;6.57;5.45;;;13.80;99.90;;;;;;2070526;28;20397;-71
2022/11/15 04:48:04;;;;;;;8.63;6.03;;;13.80;99.90;;;;;;2069302;28;20098;-71
2022/11/15 04:49:04;;;;;;;7.47;6.28;;;13.90;99.90;;;;;;2072350;28;20486;-71
2022/11/15 04:50:05;;;;;;;6.63;5.97;;;13.90;99.90;;;;;;2071090;28;20028;-71
2022/11/15 04:51:06;;;;;;;7.15;5.47;;;13.90;99.90;;;;;;2069809;28;20033;-71
2022/11/15 04:52:07;;;;;;;9.45;6.30;;;13.90;99.90;;;;;;2068619;28;20840;-71
2022/11/15 04:53:07;;;;;;;7.47;5.80;;;13.90;99.90;;;;;;2068826;28;20478;-71
2022/11/15 04:54:08;;;;;;;7.85;6.15;;;13.90;99.90;;;;;;2070279;28;20604;-71
2022/11/15 04:55:10;;;;;;;8.15;6.18;;;13.90;99.90;;;;;;2070812;28;20054;-71
2022/11/15 04:56:11;;;;;;;6.20;5.68;;;13.90;99.90;;;;;;2067256;28;20390;-71
2022/11/15 04:57:11;;;;;;;10.57;6.15;;;13.90;99.90;;;;;;2069767;28;20025;-71
2022/11/15 04:58:12;;;;;;;6.40;5.80;;;13.90;99.90;;;;;;2070359;28;20109;-71
2022/11/15 04:59:12;;;;;;;6.65;5.85;;;13.90;99.90;;;;;;2071127;28;20022;-71
2022/11/15 05:00:14;;;;;;;7.03;5.90;;;13.90;99.90;;;;;;2078736;28;20708;-71
2022/11/15 05:01:16;;;;;;;6.75;5.75;;;13.90;99.90;;;;;;2078781;28;20493;-71
2022/11/15 05:02:16;;;;;;;7.13;5.50;;;13.90;99.90;;;;;;2068844;28;20034;-71
2022/11/15 05:04:36;;;;;;;8.43;6.10;;;14.00;99.90;;;;;;2069298;28;20030;-71
2022/11/15 05:05:36;;;;;;;7.05;5.78;;;13.90;99.90;;;;;;2069337;28;20514;-71
2022/11/15 05:06:37;;;;;;;6.07;5.47;;;13.90;99.90;;;;;;2069784;28;20141;-72
2022/11/15 05:07:37;;;;;;;8.13;6.03;;;14.00;99.90;;;;;;2073614;28;20040;-71
2022/11/15 05:08:38;;;;;;;6.93;6.22;;;13.90;99.90;;;;;;2070443;28;20035;-71
2022/11/15 05:09:38;;;;;;;7.13;5.57;;;14.00;99.90;;;;;;2070544;28;20037;-71
2022/11/15 05:10:39;;;;;;;6.80;5.72;;;14.00;99.90;;;;;;2069853;28;20036;-71
2022/11/15 05:11:40;;;;;;;9.05;6.18;;;13.90;99.90;;;;;;2069234;28;20045;-71
2022/11/15 05:12:42;;;;;;;7.78;6.30;;;13.90;99.90;;;;;;2067359;28;20719;-71
2022/11/15 05:13:42;;;;;;;6.72;6.05;;;14.00;99.90;;;;;;2068620;28;20084;-71
2022/11/15 05:14:43;;;;;;;6.43;5.80;;;14.00;99.90;;;;;;2067986;28;20560;-71
2022/11/15 05:15:43;;;;;;;6.80;6.20;;;14.00;99.90;;;;;;2069127;28;20025;-71
2022/11/15 05:16:44;;;;;;;6.43;5.82;;;14.00;99.90;;;;;;2070980;28;20140;-71
2022/11/15 05:17:45;;;;;;;6.43;5.70;;;14.00;99.90;;;;;;2072633;28;20037;-71
2022/11/15 05:18:45;;;;;;;7.15;6.45;;;14.00;99.90;;;;;;2070625;28;20044;-71
2022/11/15 05:19:46;;;;;;;7.28;5.80;;;14.00;99.90;;;;;;2069848;28;20026;-71
2022/11/15 05:20:46;;;;;;;7.05;6.30;;;14.10;99.90;;;;;;2069758;28;20034;-71
2022/11/15 05:21:48;;;;;;;6.35;5.72;;;14.10;99.90;;;;;;2068538;28;20477;-71
2022/11/15 05:22:48;;;;;;;7.05;6.35;;;14.10;99.90;;;;;;2069961;28;20089;-71
2022/11/15 05:23:49;;;;;;;7.68;6.18;;;14.10;99.90;;;;;;2069063;28;20020;-71
2022/11/15 05:24:49;;;;;;;6.90;6.10;;;14.10;99.90;;;;;;2069638;28;20022;-71
2022/11/15 05:25:50;;;;;;;6.40;5.88;;;14.10;99.90;;;;;;2070953;28;20156;-71
2022/11/15 05:26:50;;;;;;;7.18;5.93;;;14.10;99.90;;;;;;2071564;28;20033;-71
2022/11/15 05:27:51;;;;;;;7.55;6.10;;;14.10;99.90;;;;;;2069361;28;20037;-71
2022/11/15 05:28:57;;;;;;;6.60;6.00;;;14.10;99.90;;;;;;2068656;28;20132;-71
2022/11/15 05:29:57;;;;;;;6.63;5.93;;;14.10;99.90;;;;;;2070922;28;20030;-71
2022/11/15 05:31:08;;;;;;;6.72;6.13;;;14.10;99.90;;;;;;2069984;28;20061;-71
2022/11/15 05:32:09;;;;;;;6.72;6.10;;;14.10;99.90;;;;;;2068938;28;20558;-71
2022/11/15 05:33:10;;;;;;;7.38;6.63;;;14.10;99.90;;;;;;2070255;28;20018;-71
2022/11/15 05:34:10;;;;;;;6.95;6.18;;;14.10;99.90;;;;;;2070462;28;20038;-71
2022/11/15 05:35:38;;;;;;;7.53;6.15;;;14.10;99.90;;;;;;2071476;28;20026;-71
2022/11/15 05:36:42;;;;;;;6.25;5.68;;;14.10;99.90;;;;;;2072152;28;20051;-71
2022/11/15 05:37:43;;;;;;;6.78;6.20;;;14.10;99.90;;;;;;2072577;28;20033;-71
2022/11/15 05:38:45;;;;;;;6.70;6.00;;;14.10;99.90;;;;;;2071733;28;20075;-71
2022/11/15 05:39:45;;;;;;;6.47;5.88;;;14.10;99.90;;;;;;2071867;28;20037;-71
2022/11/15 05:40:46;;;;;;;10.30;6.18;;;14.10;99.90;;;;;;2073411;28;20034;-71
2022/11/15 05:41:54;;;;;;;7.22;6.18;;;14.10;99.90;;;;;;2071850;28;21108;-71
2022/11/15 05:42:55;;;;;;;8.02;6.30;;;14.10;99.90;;;;;;2070077;28;20117;-71
2022/11/15 05:43:57;;;;;;;7.63;6.13;;;14.10;99.90;;;;;;2077280;28;20032;-71
2022/11/15 05:44:59;;;;;;;6.80;6.22;;;14.10;99.90;;;;;;2074191;28;20416;-71